Time;durP1;ratioP1;P1;durP2;ratioP2;P2;SDS_P1;SDS_P2;PMS_P1;PMS_P2;Temp;Humidity;BMP_temperature;BMP_pressure;BME280_temperature;BME280_humidity;BME280_pressure;Samples;Min_cycle;Max_cycle;Signal;HPM_P1;HPM_P2
2022/05/08 00:04:09;;;;;;;18.37;10.43;;;;;;;13.77;76.49;101138.13;3517964;82;99118;-85
2022/05/08 00:09:10;;;;;;;17.43;9.67;;;;;;;13.75;77.06;101136.91;3542492;83;99924;-85
2022/05/08 00:14:11;;;;;;;18.03;10.70;;;;;;;13.71;76.87;101141.03;3531119;83;99482;-86
2022/05/08 00:19:12;;;;;;;17.33;10.67;;;;;;;13.70;77.07;101144.98;3456926;84;99491;-86
2022/05/08 00:24:13;;;;;;;14.97;9.13;;;;;;;13.67;77.29;101142.16;3464422;83;99121;-85
2022/05/08 00:29:15;;;;;;;16.50;9.87;;;;;;;13.64;77.01;101145.70;3548090;82;98729;-86
2022/05/08 00:34:17;;;;;;;16.67;9.18;;;;;;;13.62;77.03;101140.54;3545307;82;98877;-85
2022/05/08 00:39:20;;;;;;;14.67;9.17;;;;;;;13.58;77.42;101134.16;3500892;84;99150;-84
2022/05/08 00:44:21;;;;;;;14.65;8.65;;;;;;;13.54;77.60;101137.51;3544982;83;99317;-85
2022/05/08 00:49:22;;;;;;;13.20;8.17;;;;;;;13.48;78.23;101127.16;3500793;82;99435;-85
2022/05/08 00:54:23;;;;;;;16.23;8.83;;;;;;;13.41;78.14;101131.23;3474709;84;99170;-85
2022/05/08 00:59:25;;;;;;;14.17;8.43;;;;;;;13.34;78.64;101120.89;3471988;84;28925;-86
2022/05/08 01:04:26;;;;;;;14.47;9.23;;;;;;;13.29;78.49;101125.37;3536306;82;99072;-85
2022/05/08 01:09:28;;;;;;;14.60;9.03;;;;;;;13.28;78.72;101126.55;3489405;84;99002;-86
2022/05/08 01:14:29;;;;;;;14.63;9.03;;;;;;;13.25;78.86;101128.67;3484576;83;99122;-85
2022/05/08 01:19:30;;;;;;;18.50;9.20;;;;;;;13.25;78.72;101128.67;3528271;82;99029;-85
2022/05/08 01:24:31;;;;;;;14.77;8.30;;;;;;;13.22;79.18;101130.02;3536042;82;99375;-86
2022/05/08 01:29:32;;;;;;;18.30;9.70;;;;;;;13.21;79.12;101127.86;3504334;83;25846;-86
2022/05/08 01:34:33;;;;;;;16.47;9.47;;;;;;;13.19;79.72;101127.42;3467876;84;99108;-85
2022/05/08 01:39:34;;;;;;;17.33;10.17;;;;;;;13.19;79.20;101126.64;3524397;83;99058;-86
2022/05/08 01:44:35;;;;;;;14.63;8.70;;;;;;;13.18;79.52;101130.56;3533302;82;99832;-86
2022/05/08 01:49:37;;;;;;;14.83;9.97;;;;;;;13.17;79.68;101129.78;3510896;84;98991;-86
2022/05/08 01:54:38;;;;;;;16.87;10.57;;;;;;;13.15;79.77;101127.19;3488217;83;99044;-86
2022/05/08 01:59:39;;;;;;;14.00;8.30;;;;;;;13.14;79.37;101129.75;3545726;82;34957;-86
2022/05/08 02:04:40;;;;;;;18.23;9.60;;;;;;;13.15;79.25;101134.09;3496027;84;99014;-85
2022/05/08 02:09:44;;;;;;;14.23;9.43;;;;;;;13.14;79.58;101137.43;3533522;83;98771;-86
2022/05/08 02:14:45;;;;;;;14.37;8.67;;;;;;;13.15;79.33;101132.71;3528030;82;99423;-86
2022/05/08 02:19:47;;;;;;;15.33;9.07;;;;;;;13.13;79.47;101137.23;3489939;83;99303;-86
2022/05/08 02:24:48;;;;;;;16.43;10.30;;;;;;;13.12;79.36;101138.41;3503255;84;99420;-86
2022/05/08 02:29:51;;;;;;;16.90;11.47;;;;;;;13.12;79.68;101137.59;3482269;84;25913;-86
2022/05/08 02:34:52;;;;;;;18.42;12.28;;;;;;;13.10;81.21;101143.52;3477752;84;99020;-85
2022/05/08 02:39:54;;;;;;;18.70;12.17;;;;;;;13.06;81.83;101146.02;3457402;83;99523;-86
2022/05/08 02:44:55;;;;;;;17.60;11.40;;;;;;;13.04;81.60;101149.75;3436457;84;99130;-85
2022/05/08 02:49:56;;;;;;;19.17;11.67;;;;;;;13.00;81.75;101152.47;3479290;84;99219;-85
2022/05/08 02:54:57;;;;;;;16.93;10.50;;;;;;;12.98;81.67;101149.27;3424206;84;99585;-85
2022/05/08 03:00:05;;;;;;;15.83;10.40;;;;;;;12.98;81.34;101145.73;3455889;84;26145;-85
2022/05/08 03:05:07;;;;;;;15.70;10.35;;;;;;;12.98;81.66;101149.88;3463222;83;99043;-85
2022/05/08 03:10:11;;;;;;;17.50;10.48;;;;;;;12.94;81.92;101153.14;3491448;84;99119;-85
2022/05/08 03:15:12;;;;;;;17.32;11.05;;;;;;;12.91;82.13;101142.86;3461657;84;99649;-85
2022/05/08 03:20:13;;;;;;;17.23;11.30;;;;;;;12.88;81.91;101156.02;3462849;84;99630;-86
2022/05/08 03:25:14;;;;;;;17.27;10.07;;;;;;;12.86;82.17;101162.52;3444672;84;99097;-85
2022/05/08 03:30:15;;;;;;;16.83;10.53;;;;;;;12.78;82.53;101158.05;3510900;84;27928;-85
2022/05/08 03:35:16;;;;;;;15.38;9.78;;;;;;;12.76;81.96;101152.89;3501317;83;99005;-85
2022/05/08 03:40:17;;;;;;;17.47;11.10;;;;;;;12.76;82.02;101159.80;3508500;83;98767;-85
2022/05/08 03:45:19;;;;;;;16.33;11.57;;;;;;;12.71;83.17;101154.59;3491863;83;99180;-85
2022/05/08 03:50:21;;;;;;;18.40;9.50;;;;;;;12.71;82.63;101151.06;3521635;83;99587;-85
2022/05/08 03:55:22;;;;;;;13.70;9.17;;;;;;;12.74;82.31;101159.96;3502817;83;99076;-85
2022/05/08 04:00:23;;;;;;;14.90;9.00;;;;;;;12.76;82.15;101163.95;3507632;84;99481;-86
2022/05/08 04:05:25;;;;;;;15.27;9.17;;;;;;;12.79;82.43;101167.92;3510446;83;98510;-83
2022/05/08 04:10:26;;;;;;;13.93;9.40;;;;;;;12.81;82.15;101188.48;3509349;84;98915;-84
2022/05/08 04:20:46;;;;;;;16.55;10.75;;;;;;;12.89;82.75;101195.72;3514067;83;98950;-83
2022/05/08 04:25:53;;;;;;;14.73;9.63;;;;;;;12.92;83.02;101201.08;3535124;83;99489;-83
2022/05/08 04:30:54;;;;;;;15.23;10.35;;;;;;;12.98;82.53;101203.16;3534789;83;98973;-83
2022/05/08 04:35:55;;;;;;;16.07;10.93;;;;;;;13.06;82.50;101208.19;3487210;83;26299;-83
2022/05/08 04:40:56;;;;;;;17.40;11.37;;;;;;;13.15;82.30;101209.53;3534337;82;99350;-83
2022/05/08 04:45:58;;;;;;;15.93;11.23;;;;;;;13.25;82.66;101204.70;3461652;84;99530;-83
2022/05/08 04:50:59;;;;;;;17.20;10.87;;;;;;;13.34;82.93;101206.59;3496393;83;99544;-83
2022/05/08 04:56:00;;;;;;;16.90;9.97;;;;;;;13.45;82.70;101217.20;3473618;84;99253;-83
2022/05/08 05:01:01;;;;;;;17.43;11.27;;;;;;;13.58;82.82;101216.36;3499976;83;98912;-85
2022/05/08 05:06:03;;;;;;;18.40;11.10;;;;;;;13.70;82.95;101224.40;3547020;82;25791;-86
2022/05/08 05:11:08;;;;;;;16.57;11.20;;;;;;;13.79;83.11;101228.45;3517954;83;99120;-86
2022/05/08 05:16:09;;;;;;;16.97;10.93;;;;;;;13.91;83.14;101229.55;3508963;83;99016;-86
2022/05/08 05:21:11;;;;;;;14.70;9.83;;;;;;;14.04;82.93;101241.97;3517118;82;99264;-84
2022/05/08 05:26:12;;;;;;;14.90;10.07;;;;;;;14.22;82.96;101242.95;3560035;82;98918;-85
2022/05/08 05:31:14;;;;;;;16.10;9.30;;;;;;;14.45;83.09;101248.30;3543566;81;99560;-86
2022/05/08 05:36:15;;;;;;;12.53;7.47;;;;;;;14.70;82.83;101250.66;3548555;82;31747;-86
2022/05/08 05:41:16;;;;;;;11.80;7.53;;;;;;;14.97;81.29;101258.97;3511145;83;99350;-86
2022/05/08 05:51:37;;;;;;;11.10;6.17;;;;;;;15.44;80.01;101266.63;3509743;83;98676;-86
2022/05/08 05:56:39;;;;;;;9.18;5.35;;;;;;;15.76;79.40;101277.23;3530050;83;99134;-85
2022/05/08 06:01:40;;;;;;;9.07;4.93;;;;;;;16.02;78.21;101285.25;3550479;82;99452;-86
2022/05/08 06:06:41;;;;;;;9.93;5.92;;;;;;;16.15;76.74;101294.82;3544320;81;99374;-85
2022/05/08 06:11:44;;;;;;;8.33;5.10;;;;;;;16.35;76.41;101293.25;3546156;81;98461;-85
2022/05/08 06:16:45;;;;;;;9.40;5.58;;;;;;;16.55;75.22;101300.06;3549504;82;99137;-85
2022/05/08 06:21:47;;;;;;;9.83;5.22;;;;;;;16.70;74.59;101307.22;3540193;82;98986;-86
2022/05/08 06:26:48;;;;;;;11.20;4.92;;;;;;;16.85;73.46;101312.95;3475538;84;99304;-85
2022/05/08 06:36:57;;;;;;;9.83;5.35;;;;;;;17.12;71.56;101327.25;3765955;76;30156;-84
2022/05/08 06:41:58;;;;;;;8.18;4.72;;;;;;;17.12;70.65;101325.25;3578631;80;98574;-85
2022/05/08 06:46:59;;;;;;;9.38;5.58;;;;;;;17.16;69.73;101330.22;3566897;81;97775;-85
2022/05/08 06:52:00;;;;;;;9.25;5.15;;;;;;;17.08;68.86;101318.92;3585685;79;99157;-85
2022/05/08 06:57:01;;;;;;;9.85;4.83;;;;;;;17.07;68.78;101318.70;3580990;81;99212;-85
2022/05/08 07:02:03;;;;;;;9.03;4.80;;;;;;;17.06;68.59;101321.28;3570587;80;99413;-85
2022/05/08 07:07:04;;;;;;;10.10;5.35;;;;;;;17.08;67.99;101328.66;3691241;79;98843;-83
2022/05/08 07:12:06;;;;;;;10.20;6.10;;;;;;;17.05;67.72;101331.44;3646005;79;98864;-84
2022/05/08 07:17:07;;;;;;;10.33;5.30;;;;;;;17.02;67.59;101335.01;3619259;79;99077;-83
2022/05/08 07:22:08;;;;;;;13.85;7.28;;;;;;;16.92;68.36;101331.63;3651049;80;98787;-82
2022/05/08 07:27:11;;;;;;;12.03;5.80;;;;;;;16.63;69.85;101311.98;3658447;79;99287;-81
2022/05/08 07:32:12;;;;;;;9.48;6.28;;;;;;;16.42;70.68;101333.60;3616542;80;99019;-83
2022/05/08 07:37:13;;;;;;;12.90;7.53;;;;;;;16.44;71.22;101336.77;3637700;80;99092;-82
2022/05/08 07:42:14;;;;;;;10.40;6.08;;;;;;;16.35;71.72;101348.04;3606220;78;98862;-80
2022/05/08 07:47:15;;;;;;;9.88;6.60;;;;;;;16.31;71.50;101344.45;3713286;78;99000;-81
2022/05/08 07:52:16;;;;;;;12.63;8.30;;;;;;;16.12;72.25;101337.84;3730321;78;98944;-82
2022/05/08 07:57:17;;;;;;;10.18;6.90;;;;;;;16.13;73.86;101341.62;3709769;79;99254;-82
2022/05/08 08:02:17;;;;;;;9.30;5.80;;;;;;;16.13;73.42;101347.17;3708177;77;99074;-81
2022/05/08 08:07:18;;;;;;;9.65;5.22;;;;;;;16.17;73.45;101342.43;3679997;79;98779;-81
2022/05/08 08:12:19;;;;;;;8.13;4.80;;;;;;;16.26;73.04;101349.00;3668115;79;99251;-81
2022/05/08 08:17:22;;;;;;;8.78;5.37;;;;;;;16.25;73.20;101357.14;3529564;82;25906;-80
2022/05/08 08:22:24;;;;;;;9.30;5.22;;;;;;;16.34;73.31;101363.09;3623627;80;99012;-82
2022/05/08 08:27:25;;;;;;;9.13;5.53;;;;;;;16.37;73.64;101368.69;3659350;79;99552;-82
2022/05/08 08:32:27;;;;;;;9.97;6.00;;;;;;;16.52;73.58;101364.76;3667157;79;99181;-82
2022/05/08 08:37:28;;;;;;;9.53;5.53;;;;;;;16.63;73.59;101366.18;3685223;78;98820;-82
2022/05/08 08:42:31;;;;;;;11.45;6.10;;;;;;;16.73;73.14;101364.02;3711082;77;99180;-82
2022/05/08 08:47:45;;;;;;;9.60;5.72;;;;;;;16.80;73.11;101366.20;3710804;77;26597;-83
2022/05/08 08:52:48;;;;;;;10.95;6.55;;;;;;;16.91;72.79;101369.78;3647684;79;98916;-83
2022/05/08 08:57:50;;;;;;;14.93;9.50;;;;;;;17.10;72.87;101369.95;3687835;79;98851;-83
2022/05/08 09:02:53;;;;;;;16.77;10.35;;;;;;;17.23;72.91;101374.72;3668148;79;99096;-83
2022/05/08 09:07:54;;;;;;;14.65;9.93;;;;;;;17.36;72.27;101373.13;3676412;80;99549;-82
2022/05/08 09:13:03;;;;;;;14.28;8.53;;;;;;;17.55;72.65;101369.16;3672031;79;99484;-83
2022/05/08 09:18:08;;;;;;;13.53;7.92;;;;;;;17.82;71.70;101371.05;3683955;79;25986;-83
2022/05/08 09:23:18;;;;;;;12.17;7.53;;;;;;;18.01;69.57;101366.99;3688199;79;99409;-84
2022/05/08 09:28:23;;;;;;;12.95;7.70;;;;;;;18.30;69.03;101369.83;3678670;79;98898;-84
2022/05/08 09:33:40;;;;;;;9.43;5.30;;;;;;;18.48;67.85;101370.57;3667979;79;99537;-83
2022/05/08 09:38:52;;;;;;;8.33;4.75;;;;;;;18.96;67.63;101371.42;3669712;80;99206;-84
2022/05/08 09:43:56;;;;;;;9.58;5.25;;;;;;;19.38;67.36;101369.66;3674414;79;98778;-85
2022/05/08 09:48:57;;;;;;;11.20;6.17;;;;;;;19.87;66.48;101375.52;3652247;79;99136;-84
2022/05/08 09:53:59;;;;;;;10.38;5.72;;;;;;;20.50;65.82;101373.91;3694732;79;98637;-85
2022/05/08 09:59:00;;;;;;;8.60;4.72;;;;;;;20.83;63.32;101373.81;3676322;79;99163;-83
2022/05/08 10:04:01;;;;;;;9.50;5.30;;;;;;;21.06;61.88;101376.66;3685051;79;98618;-84
2022/05/08 10:14:29;;;;;;;8.43;4.42;;;;;;;21.68;61.15;101366.95;3681269;79;99300;-85
2022/05/08 10:19:35;;;;;;;11.00;4.92;;;;;;;22.12;59.32;101369.23;3678220;79;98839;-86
2022/05/08 10:24:47;;;;;;;8.48;4.20;;;;;;;21.87;59.52;101367.58;3676935;78;98896;-84
2022/05/08 10:29:57;;;;;;;7.30;3.60;;;;;;;22.04;57.84;101354.41;3710376;79;26367;-85
2022/05/08 10:35:20;;;;;;;8.28;3.65;;;;;;;22.18;58.30;101356.29;3703663;79;98957;-85
2022/05/08 10:40:29;;;;;;;7.45;3.80;;;;;;;22.19;55.45;101352.88;3695870;78;98694;-85
2022/05/08 10:45:41;;;;;;;7.85;4.00;;;;;;;21.99;54.24;101358.52;3663679;79;99181;-85
2022/05/08 10:50:46;;;;;;;7.65;3.85;;;;;;;22.26;53.69;101349.92;3657503;79;99270;-86
2022/05/08 10:55:47;;;;;;;6.20;3.20;;;;;;;22.37;54.14;101349.87;3706383;78;99247;-87
2022/05/08 11:00:49;;;;;;;5.75;2.65;;;;;;;22.65;53.50;101346.44;3746379;77;99157;-84
2022/05/08 11:05:50;;;;;;;5.62;2.80;;;;;;;22.88;53.30;101341.28;3684139;80;32264;-85
2022/05/08 11:11:13;;;;;;;7.70;2.90;;;;;;;23.28;52.27;101330.03;3662433;79;98614;-84
2022/05/08 11:16:33;;;;;;;5.67;2.52;;;;;;;23.59;50.04;101331.96;3678699;78;98932;-85
2022/05/08 11:21:32;;;;;;;6.10;3.00;;;;;;;23.80;50.79;101329.16;3672482;78;99152;-85
2022/05/08 11:26:35;;;;;;;5.50;2.70;;;;;;;24.29;50.99;101332.73;3698868;78;98828;-85
2022/05/08 11:31:35;;;;;;;6.22;2.80;;;;;;;24.93;51.18;101323.05;3668933;79;99246;-85
2022/05/08 11:36:38;;;;;;;6.80;2.90;;;;;;;25.50;49.86;101319.88;3706870;78;99223;-85
2022/05/08 11:41:46;;;;;;;4.47;2.47;;;;;;;25.61;48.37;101321.04;3708255;78;98446;-84
2022/05/08 11:46:57;;;;;;;6.55;2.70;;;;;;;26.00;48.21;101321.04;3705456;78;99053;-85
2022/05/08 11:52:06;;;;;;;4.70;2.37;;;;;;;26.42;46.43;101308.86;3685481;78;98996;-86
2022/05/08 11:57:21;;;;;;;6.62;2.77;;;;;;;26.14;45.88;101304.34;3704711;78;98735;-87
2022/05/08 12:02:40;;;;;;;7.90;3.23;;;;;;;26.05;45.74;101309.93;3701054;78;98825;-85
2022/05/08 12:07:42;;;;;;;4.62;2.50;;;;;;;25.67;44.63;101309.33;3699855;78;99102;-84
2022/05/08 12:12:44;;;;;;;5.03;2.42;;;;;;;25.81;46.02;101299.56;3696982;77;98794;-86
2022/05/08 12:17:50;;;;;;;4.83;2.27;;;;;;;25.67;45.78;101298.05;3708227;79;26441;-85
2022/05/08 12:23:08;;;;;;;4.25;2.30;;;;;;;25.52;42.91;101297.02;3706744;78;98909;-84
2022/05/08 12:28:13;;;;;;;4.60;2.20;;;;;;;25.49;43.91;101291.48;3707988;78;98610;-85
2022/05/08 12:33:14;;;;;;;6.10;2.17;;;;;;;25.66;44.58;101298.53;3703958;78;98830;-85
2022/05/08 12:38:15;;;;;;;3.90;2.10;;;;;;;26.06;43.20;101286.75;3702473;79;99137;-86
2022/05/08 12:43:16;;;;;;;12.10;7.42;;;;;;;26.21;41.99;101294.83;3662348;78;98907;-86
2022/05/08 12:48:21;;;;;;;4.22;1.65;;;;;;;26.22;42.42;101283.69;3645924;80;31696;-86
2022/05/08 12:53:19;;;;;;;3.55;1.80;;;;;;;26.11;40.65;101284.09;3671660;79;98486;-86
2022/05/08 13:03:40;;;;;;;5.30;1.52;;;;;;;25.73;40.35;101280.70;3592666;79;99457;-87
2022/05/08 13:08:41;;;;;;;3.83;1.37;;;;;;;25.39;40.48;101288.46;3574438;82;98802;-86
2022/05/08 13:13:42;;;;;;;4.67;2.45;;;;;;;25.05;40.01;101284.19;3577577;80;98966;-86
2022/05/08 13:18:43;;;;;;;2.62;1.50;;;;;;;25.02;40.75;101277.44;3644929;78;99243;-86
2022/05/08 13:23:44;;;;;;;3.72;1.50;;;;;;;24.93;40.50;101280.19;3782073;78;98801;-86
2022/05/08 13:28:45;;;;;;;3.98;1.50;;;;;;;24.78;40.10;101283.92;3783525;76;98948;-86
2022/05/08 13:33:46;;;;;;;4.47;1.60;;;;;;;24.54;39.69;101282.09;3768834;78;99008;-86
2022/05/08 13:38:47;;;;;;;4.55;1.87;;;;;;;24.36;39.23;101283.26;3774663;78;98874;-85
2022/05/08 13:43:48;;;;;;;2.77;1.47;;;;;;;23.97;39.50;101287.13;3771692;76;98777;-85
2022/05/08 13:48:48;;;;;;;3.10;1.60;;;;;;;23.93;40.10;101280.18;3759845;77;98768;-87
2022/05/08 13:53:49;;;;;;;4.95;1.70;;;;;;;23.89;39.76;101275.91;3760116;76;98736;-86
2022/05/08 13:58:51;;;;;;;3.72;1.75;;;;;;;23.81;39.18;101268.27;3780595;78;98711;-88
2022/05/08 14:03:52;;;;;;;5.00;1.82;;;;;;;23.75;38.99;101273.51;3775392;78;98683;-86
2022/05/08 14:08:52;;;;;;;6.58;1.67;;;;;;;23.58;38.96;101269.16;3774242;76;99239;-87
2022/05/08 14:13:53;;;;;;;5.03;1.70;;;;;;;23.66;39.37;101274.13;3764913;76;99257;-87
2022/05/08 14:18:54;;;;;;;5.20;1.55;;;;;;;23.74;40.27;101274.72;3765927;76;98771;-86
2022/05/08 14:23:55;;;;;;;5.10;1.40;;;;;;;23.72;39.76;101257.52;3752071;76;98709;-86
2022/05/08 14:28:56;;;;;;;3.00;1.30;;;;;;;23.79;39.89;101272.77;3769835;78;98734;-85
2022/05/08 14:39:16;;;;;;;8.33;1.70;;;;;;;23.94;39.88;101270.53;3687894;78;98849;-85
2022/05/08 14:44:17;;;;;;;3.20;1.47;;;;;;;23.73;39.07;101275.35;3681276;79;99214;-86
2022/05/08 14:49:18;;;;;;;4.65;2.15;;;;;;;23.61;39.65;101267.69;3688190;78;99287;-85
2022/05/08 14:54:19;;;;;;;8.75;1.60;;;;;;;23.61;39.92;101258.45;3682129;78;98358;-85
2022/05/08 14:59:20;;;;;;;3.33;1.80;;;;;;;23.46;39.09;101249.64;3679837;79;98954;-88
2022/05/08 15:04:21;;;;;;;5.33;1.52;;;;;;;23.14;38.56;101257.34;3675087;79;98702;-87
2022/05/08 15:09:24;;;;;;;3.60;1.90;;;;;;;22.82;39.28;101255.38;3687110;78;99498;-86
2022/05/08 15:14:25;;;;;;;5.40;1.77;;;;;;;22.77;38.70;101255.14;3679284;78;99178;-86
2022/05/08 15:19:27;;;;;;;5.85;1.80;;;;;;;22.57;38.43;101262.86;3674841;79;99181;-86
2022/05/08 15:24:29;;;;;;;4.42;1.87;;;;;;;22.41;38.90;101262.22;3660005;79;99155;-87
2022/05/08 15:29:30;;;;;;;5.62;1.70;;;;;;;22.29;38.97;101256.50;3662431;80;34848;-86
2022/05/08 15:34:32;;;;;;;4.28;1.77;;;;;;;22.24;39.40;101256.39;3642525;79;98688;-86
2022/05/08 15:39:34;;;;;;;5.20;2.25;;;;;;;22.14;38.69;101258.06;3661937;79;98826;-86
2022/05/08 15:44:36;;;;;;;8.40;2.52;;;;;;;22.03;39.32;101263.12;3655586;80;99149;-85
2022/05/08 15:49:37;;;;;;;6.05;2.22;;;;;;;21.96;39.15;101267.48;3717588;78;98762;-87
2022/05/08 15:54:38;;;;;;;7.05;2.20;;;;;;;21.79;39.16;101272.87;3704279;78;98751;-86
2022/05/08 15:59:39;;;;;;;5.22;1.95;;;;;;;21.70;38.88;101270.63;3719142;78;34822;-85
2022/05/08 16:04:40;;;;;;;4.83;1.95;;;;;;;21.67;38.75;101276.27;3707460;79;98705;-85
2022/05/08 16:09:41;;;;;;;7.92;2.40;;;;;;;21.50;38.52;101274.03;3714520;78;98870;-87
2022/05/08 16:25:21;;;;;;;6.72;2.10;;;;;;;21.16;38.57;101277.70;3710520;78;98734;-86
2022/05/08 16:30:22;;;;;;;10.10;2.00;;;;;;;21.09;38.43;101285.44;3719177;78;34907;-85
2022/05/08 16:35:23;;;;;;;7.70;2.20;;;;;;;20.96;38.96;101288.66;3707182;78;98756;-88
2022/05/08 16:40:24;;;;;;;10.93;2.58;;;;;;;20.85;38.22;101298.62;3688703;78;98636;-86
2022/05/08 16:45:28;;;;;;;10.25;2.85;;;;;;;20.74;38.70;101304.20;3668193;79;98999;-87
2022/05/08 16:50:29;;;;;;;8.73;2.47;;;;;;;20.61;38.97;101299.80;3700562;78;99328;-87
2022/05/08 16:55:30;;;;;;;9.20;2.60;;;;;;;20.48;39.27;101311.41;3683025;78;98719;-86
2022/05/08 17:00:31;;;;;;;9.78;2.75;;;;;;;20.27;38.72;101313.73;3703471;78;98826;-83
2022/05/08 17:05:32;;;;;;;7.50;2.52;;;;;;;20.14;39.74;101312.12;3769881;77;34835;-87
2022/05/08 17:10:33;;;;;;;7.53;2.67;;;;;;;19.98;39.96;101324.48;3700346;76;98945;-86
2022/05/08 17:15:39;;;;;;;9.05;3.15;;;;;;;19.79;40.44;101323.70;3701745;78;99129;-86
2022/05/08 17:20:38;;;;;;;9.83;2.30;;;;;;;19.67;40.62;101317.90;3678522;78;99112;-87
2022/05/08 17:25:39;;;;;;;9.08;2.50;;;;;;;19.50;42.11;101321.06;3702279;78;98860;-86
2022/05/08 17:30:40;;;;;;;9.60;2.67;;;;;;;19.25;42.04;101330.92;3688078;79;98797;-86
2022/05/08 17:35:42;;;;;;;7.95;2.62;;;;;;;19.04;42.06;101322.71;3635025;78;34860;-86
2022/05/08 17:40:44;;;;;;;8.78;2.52;;;;;;;18.86;42.43;101330.45;3764836;77;98582;-86
2022/05/08 17:45:48;;;;;;;6.85;2.37;;;;;;;18.64;42.52;101340.19;3767272;78;98611;-86
2022/05/08 17:50:48;;;;;;;10.40;2.75;;;;;;;18.46;42.37;101342.29;3738851;78;99052;-86
2022/05/08 17:55:49;;;;;;;8.73;2.42;;;;;;;18.23;42.31;101342.81;3757033;77;98958;-86
2022/05/08 18:00:50;;;;;;;8.63;2.90;;;;;;;18.02;42.72;101346.29;3736858;78;98862;-86
2022/05/08 18:05:54;;;;;;;10.88;3.40;;;;;;;17.86;43.82;101353.73;3753658;77;34803;-86
2022/05/08 18:10:58;;;;;;;13.20;4.67;;;;;;;17.66;44.14;101356.77;3742756;77;98878;-86
2022/05/08 18:15:59;;;;;;;13.05;4.92;;;;;;;17.39;44.41;101362.59;3696771;79;98707;-86
2022/05/08 18:21:02;;;;;;;10.72;3.17;;;;;;;17.13;44.75;101380.30;3693884;78;99636;-86
2022/05/08 18:26:03;;;;;;;10.18;2.70;;;;;;;16.86;44.98;101391.03;3691662;79;99537;-88
2022/05/08 18:31:04;;;;;;;5.97;2.58;;;;;;;16.60;44.94;101398.92;3692319;79;98961;-86
2022/05/08 18:36:06;;;;;;;12.40;2.90;;;;;;;16.43;45.94;101408.82;3700510;78;35127;-86
2022/05/08 18:41:07;;;;;;;11.22;3.20;;;;;;;16.17;45.84;101416.03;3687489;79;99039;-84
2022/05/08 18:46:08;;;;;;;9.28;2.50;;;;;;;15.94;45.67;101423.87;3685424;78;99230;-85
2022/05/08 18:51:10;;;;;;;12.98;3.20;;;;;;;15.71;46.58;101430.29;3664026;79;98824;-85
2022/05/08 18:56:11;;;;;;;13.65;3.90;;;;;;;15.54;46.92;101446.20;3687912;79;98942;-85
2022/05/08 19:01:12;;;;;;;14.70;3.63;;;;;;;15.35;47.20;101449.25;3638822;80;98989;-85
2022/05/08 19:06:13;;;;;;;13.10;4.20;;;;;;;15.17;46.95;101458.56;3705574;79;30662;-84
2022/05/08 19:11:20;;;;;;;11.50;3.10;;;;;;;14.95;47.36;101467.87;3618326;80;99275;-84
2022/05/08 19:16:17;;;;;;;10.32;4.17;;;;;;;14.73;47.95;101472.41;3636852;79;98818;-84
2022/05/08 19:21:18;;;;;;;10.43;3.60;;;;;;;14.52;48.07;101481.86;3680279;78;99570;-84
2022/05/08 19:26:21;;;;;;;11.87;3.43;;;;;;;14.32;48.95;101487.34;3706751;77;99050;-84
2022/05/08 19:42:04;;;;;;;10.23;2.90;;;;;;;13.69;49.81;101492.55;3748860;77;99216;-84
2022/05/08 19:47:17;;;;;;;11.85;3.90;;;;;;;13.54;50.50;101505.36;3754023;77;99372;-84
2022/05/08 19:52:22;;;;;;;10.90;3.55;;;;;;;13.36;50.57;101512.55;3743408;77;99357;-85
2022/05/08 19:57:25;;;;;;;11.78;3.12;;;;;;;13.17;50.32;101513.19;3746940;77;99008;-85
2022/05/08 20:02:29;;;;;;;10.70;3.33;;;;;;;13.00;50.19;101521.96;3753070;77;99293;-85
2022/05/08 20:07:30;;;;;;;8.35;3.10;;;;;;;12.81;50.27;101526.13;3752982;78;99604;-84
2022/05/08 20:12:31;;;;;;;9.23;2.73;;;;;;;12.65;50.36;101529.55;3738091;77;98744;-84
2022/05/08 20:17:32;;;;;;;9.63;2.30;;;;;;;12.51;50.73;101536.15;3756029;77;30067;-85
2022/05/08 20:22:33;;;;;;;13.57;4.17;;;;;;;12.39;50.74;101534.91;3699764;79;98995;-85
2022/05/08 20:27:35;;;;;;;11.70;3.00;;;;;;;12.23;50.63;101542.45;3707625;78;99670;-84
2022/05/08 20:32:37;;;;;;;12.30;3.07;;;;;;;12.08;50.88;101547.42;3690304;78;99648;-84
2022/05/08 20:37:38;;;;;;;10.90;3.30;;;;;;;11.96;51.40;101552.50;3701054;78;99508;-85
2022/05/08 20:42:41;;;;;;;11.30;3.47;;;;;;;11.81;51.29;101559.39;3707438;77;99267;-85
2022/05/08 20:47:42;;;;;;;10.82;3.12;;;;;;;11.64;51.71;101568.05;3716740;79;35151;-85
2022/05/08 20:52:43;;;;;;;11.33;2.90;;;;;;;11.45;51.74;101574.23;3772523;77;99474;-85
2022/05/08 20:57:44;;;;;;;12.27;3.47;;;;;;;11.31;52.41;101582.16;3769818;76;99651;-86
2022/05/08 21:02:45;;;;;;;10.60;3.52;;;;;;;11.16;52.61;101592.56;3781424;76;99576;-85
2022/05/08 21:07:52;;;;;;;9.47;2.80;;;;;;;11.08;53.22;101600.42;3775677;78;99529;-86
2022/05/08 21:12:57;;;;;;;9.08;3.17;;;;;;;11.00;53.62;101607.44;3774697;76;99411;-86
2022/05/08 21:17:57;;;;;;;10.05;3.30;;;;;;;10.89;53.62;101614.04;3701901;79;35527;-86
2022/05/08 21:22:59;;;;;;;9.95;2.70;;;;;;;10.79;53.75;101612.37;3720813;79;99463;-85
2022/05/08 21:28:01;;;;;;;10.85;3.42;;;;;;;10.70;54.16;101617.20;3682677;79;99384;-85
2022/05/08 21:33:03;;;;;;;12.15;3.12;;;;;;;10.58;54.80;101621.38;3773492;78;99006;-85
2022/05/08 21:38:05;;;;;;;11.08;3.17;;;;;;;10.46;55.29;101619.45;3752799;77;99696;-85
2022/05/08 21:43:07;;;;;;;11.88;3.42;;;;;;;10.38;56.06;101632.78;3763868;76;99531;-84
2022/05/08 21:48:08;;;;;;;8.53;2.80;;;;;;;10.31;56.94;101643.54;3775335;78;34849;-84
2022/05/08 21:53:10;;;;;;;13.78;4.17;;;;;;;10.30;57.94;101649.41;3772390;76;99185;-85
2022/05/08 21:58:11;;;;;;;11.05;3.60;;;;;;;10.23;58.27;101655.48;3789193;76;99555;-85
2022/05/08 22:03:13;;;;;;;13.35;4.12;;;;;;;10.19;58.96;101654.56;3775205;78;99566;-86
2022/05/08 22:08:14;;;;;;;8.60;3.47;;;;;;;10.13;59.16;101662.81;3772957;76;99032;-84
2022/05/08 22:13:17;;;;;;;9.67;3.63;;;;;;;10.06;60.37;101665.34;3774386;76;98606;-84
2022/05/08 22:23:40;;;;;;;9.98;4.10;;;;;;;9.91;62.49;101665.98;3705040;78;98849;-84
2022/05/08 22:29:04;;;;;;;13.53;5.17;;;;;;;9.85;64.47;101665.17;3718406;78;98811;-83
2022/05/08 22:34:06;;;;;;;13.75;4.95;;;;;;;9.79;66.60;101683.84;3690928;78;98438;-84
2022/05/08 22:39:08;;;;;;;11.95;6.45;;;;;;;9.75;68.30;101682.13;3658396;79;97873;-84
2022/05/08 22:44:11;;;;;;;13.22;6.25;;;;;;;9.71;70.96;101694.95;3646581;79;98656;-84
2022/05/08 22:49:12;;;;;;;12.33;6.72;;;;;;;9.67;72.08;101695.39;3712280;78;98538;-82
2022/05/08 22:54:13;;;;;;;12.93;6.37;;;;;;;9.61;75.39;101696.19;3636703;80;98273;-85
2022/05/08 22:59:17;;;;;;;12.23;6.70;;;;;;;9.57;74.62;101705.44;3718982;79;98551;-85
2022/05/08 23:04:18;;;;;;;15.90;8.23;;;;;;;9.50;75.27;101708.75;3709682;79;98500;-86
2022/05/08 23:09:20;;;;;;;16.27;8.60;;;;;;;9.45;75.74;101712.27;3712770;78;99233;-85
2022/05/08 23:20:10;;;;;;;14.68;8.58;;;;;;;9.30;76.03;101715.08;3642840;81;98691;-84
2022/05/08 23:25:19;;;;;;;17.10;9.07;;;;;;;9.19;78.12;101722.69;3648642;78;98541;-83
2022/05/08 23:30:25;;;;;;;18.25;10.68;;;;;;;9.09;80.35;101727.20;3705670;79;35492;-84
2022/05/08 23:35:28;;;;;;;17.42;10.48;;;;;;;8.99;80.54;101728.42;3670315;78;99022;-84
2022/05/08 23:40:36;;;;;;;21.27;11.90;;;;;;;8.93;80.80;101728.39;3693808;79;98728;-83
2022/05/08 23:45:38;;;;;;;21.50;12.55;;;;;;;8.86;82.68;101732.25;3710106;79;98779;-85
2022/05/08 23:50:40;;;;;;;23.70;12.18;;;;;;;8.78;84.14;101727.60;3695300;79;99166;-83
2022/05/08 23:55:42;;;;;;;20.80;12.20;;;;;;;8.52;85.29;101699.55;3684879;79;100022;-84
